createdAt,value
2023-04-23T12:29:10.986Z,1.30
2023-04-23T12:31:11.286Z,1.30
2023-04-23T12:33:11.568Z,1.30
2023-04-23T12:35:11.862Z,1.50
2023-04-23T12:37:12.170Z,1.50
2023-04-23T12:39:12.453Z,1.30
2023-04-23T12:41:17.748Z,1.40
2023-04-23T12:43:18.060Z,1.30
2023-04-23T12:45:18.404Z,1.40
2023-04-23T12:47:18.688Z,1.30
2023-04-23T12:49:19.008Z,1.10
2023-04-23T12:51:19.323Z,1.40
2023-04-23T12:53:19.570Z,1.30
2023-04-23T12:55:19.926Z,1.10
2023-04-23T12:57:21.216Z,1.10
2023-04-23T12:59:21.527Z,1.20
2023-04-23T13:01:21.878Z,1.20
2023-04-23T13:03:22.228Z,1.20
2023-04-23T13:05:22.593Z,1.30
2023-04-23T13:07:22.891Z,1.20
2023-04-23T13:09:24.267Z,1.20
2023-04-23T13:11:26.224Z,1.20
2023-04-23T13:13:26.582Z,1.20
2023-04-23T13:15:27.302Z,1.10
2023-04-23T13:17:27.716Z,1.30
2023-04-23T13:19:28.005Z,1.00
2023-04-23T13:21:33.144Z,1.20
2023-04-23T13:23:33.484Z,1.30
2023-04-23T13:25:34.090Z,1.30
2023-04-23T13:27:34.482Z,1.40
2023-04-23T13:29:34.756Z,1.10
2023-04-23T13:31:35.480Z,1.20
2023-04-23T13:33:36.016Z,1.20
2023-04-23T13:35:36.387Z,1.30
2023-04-23T13:37:36.681Z,1.30
2023-04-23T13:39:38.741Z,1.20
2023-04-23T13:41:40.275Z,1.50
2023-04-23T13:43:40.576Z,1.50
2023-04-23T13:45:40.991Z,1.40
2023-04-23T13:47:41.396Z,1.40
2023-04-23T13:49:42.022Z,1.40
2023-04-23T13:51:42.510Z,1.40
2023-04-23T13:53:42.876Z,1.30
2023-04-23T13:55:43.167Z,1.40
2023-04-23T13:57:43.450Z,1.50
2023-04-23T13:59:44.002Z,1.30
2023-04-23T14:01:44.519Z,1.30
2023-04-23T14:03:44.901Z,1.50
2023-04-23T14:05:45.144Z,1.30
2023-04-23T14:07:45.495Z,1.40
2023-04-23T14:09:45.872Z,1.40
2023-04-23T14:11:46.151Z,1.30
2023-04-23T14:13:46.486Z,1.40
2023-04-23T14:15:46.806Z,1.30
2023-04-23T14:17:47.132Z,1.40
2023-04-23T14:19:47.445Z,1.30
2023-04-23T14:21:47.767Z,1.30
2023-04-23T14:23:48.102Z,1.30
2023-04-23T14:25:48.361Z,1.20
2023-04-23T14:27:48.677Z,1.30
2023-04-23T14:29:49.053Z,1.40
2023-04-23T14:31:49.359Z,1.30
2023-04-23T14:33:49.636Z,1.30
2023-04-23T14:35:49.921Z,1.20
2023-04-23T14:37:50.234Z,1.30
2023-04-23T14:39:50.508Z,1.20
2023-04-23T14:41:50.872Z,1.20
2023-04-23T14:43:51.174Z,1.20
2023-04-23T14:45:51.555Z,1.30
2023-04-23T14:47:51.851Z,1.20
2023-04-23T14:49:52.159Z,1.10
2023-04-23T14:51:52.472Z,1.30
2023-04-23T14:53:54.722Z,1.30
2023-04-23T14:55:56.792Z,1.10
2023-04-23T14:57:57.119Z,1.40
2023-04-23T14:59:57.499Z,1.20
2023-04-23T15:01:57.809Z,1.20
2023-04-23T15:03:58.163Z,1.30
2023-04-23T15:05:58.506Z,1.40
2023-04-23T15:07:58.769Z,1.30
2023-04-23T15:09:59.087Z,1.60
2023-04-23T15:11:59.384Z,1.30
2023-04-23T15:13:59.679Z,1.20
2023-04-23T15:16:00.050Z,1.40
2023-04-23T15:18:00.502Z,1.30
2023-04-23T15:20:00.818Z,1.30
2023-04-23T15:22:01.114Z,1.30
2023-04-23T15:24:01.400Z,1.50
2023-04-23T15:26:01.699Z,1.50
2023-04-23T15:28:02.063Z,1.40
2023-04-23T15:30:02.347Z,1.50
2023-04-23T15:32:02.704Z,1.20
2023-04-23T15:34:03.084Z,1.20
2023-04-23T15:36:03.409Z,1.40
2023-04-23T15:38:03.674Z,1.30
2023-04-23T15:40:04.134Z,1.40
2023-04-23T15:42:04.741Z,1.30
2023-04-23T15:44:05.567Z,1.20
2023-04-23T15:46:05.961Z,1.20
2023-04-23T15:48:06.645Z,1.30
2023-04-23T15:50:12.344Z,1.40
2023-04-23T15:52:12.613Z,1.10
2023-04-23T15:54:12.931Z,1.30
2023-04-23T15:56:13.315Z,1.50
2023-04-23T15:58:13.616Z,1.60
2023-04-23T16:00:14.390Z,1.50
2023-04-23T16:02:14.719Z,1.40
2023-04-23T16:04:15.146Z,1.10
2023-04-23T16:06:15.674Z,1.30
2023-04-23T16:08:15.994Z,1.70
2023-04-23T16:10:16.254Z,1.50
2023-04-23T16:12:16.594Z,1.50
2023-04-23T16:14:16.987Z,1.50
2023-04-23T16:16:17.518Z,1.70
2023-04-23T16:18:17.900Z,1.60
2023-04-23T16:20:18.187Z,1.60
2023-04-23T16:22:18.510Z,2.10
2023-04-23T16:24:18.841Z,1.90
2023-04-23T16:26:19.142Z,2.50
2023-04-23T16:28:19.421Z,2.40
2023-04-23T16:30:19.755Z,3.80
2023-04-23T16:32:20.093Z,3.70
2023-04-23T16:34:20.401Z,4.30
2023-04-23T16:36:20.692Z,4.00
2023-04-23T16:38:21.026Z,4.60
2023-04-23T16:40:21.331Z,4.90
2023-04-23T16:42:21.617Z,4.00
2023-04-23T16:44:21.920Z,6.80
2023-04-23T16:46:22.260Z,5.60
2023-04-23T16:48:22.589Z,6.60
2023-04-23T16:50:22.889Z,7.50
2023-04-23T16:52:23.201Z,8.10
2023-04-23T16:54:23.532Z,8.70
2023-04-23T16:56:23.802Z,7.80
2023-04-23T16:58:24.153Z,7.70
2023-04-23T17:00:24.416Z,7.20
2023-04-23T17:02:24.951Z,6.60
2023-04-23T17:04:25.437Z,3.80
2023-04-23T17:06:25.775Z,3.60
2023-04-23T17:08:26.084Z,5.00
2023-04-23T17:10:26.412Z,5.10
2023-04-23T17:12:26.738Z,4.40
2023-04-23T17:14:27.024Z,3.60
2023-04-23T17:16:27.423Z,3.60
2023-04-23T17:18:27.825Z,5.30
2023-04-23T17:20:28.081Z,4.30
2023-04-23T17:22:28.399Z,4.60
2023-04-23T17:24:28.688Z,4.70
2023-04-23T17:26:28.969Z,5.00
2023-04-23T17:28:29.306Z,3.90
2023-04-23T17:30:29.601Z,4.40
2023-04-23T17:32:29.977Z,4.60
2023-04-23T17:34:31.442Z,4.60
2023-04-23T17:36:31.823Z,5.10
2023-04-23T17:38:32.143Z,6.20
2023-04-23T17:40:32.420Z,5.80
2023-04-23T17:42:32.731Z,6.60
2023-04-23T17:44:33.013Z,6.80
2023-04-23T17:46:33.327Z,6.00
2023-04-23T17:48:33.637Z,6.20
2023-04-23T17:50:33.949Z,6.50
2023-04-23T17:52:34.266Z,5.90
2023-04-23T17:54:34.543Z,5.90
2023-04-23T17:56:34.841Z,6.60
2023-04-23T17:58:36.060Z,5.50
2023-04-23T18:00:37.813Z,5.70
2023-04-23T18:02:38.156Z,5.50
2023-04-23T18:04:38.597Z,5.30
2023-04-23T18:06:39.601Z,5.00
2023-04-23T18:08:41.911Z,5.70
2023-04-23T18:10:42.991Z,6.00
2023-04-23T18:12:43.584Z,4.70
2023-04-23T18:14:43.875Z,4.80
2023-04-23T18:16:44.251Z,4.70
2023-04-23T18:18:45.198Z,4.30
2023-04-23T18:20:45.576Z,4.70
2023-04-23T18:22:45.903Z,4.30
2023-04-23T18:24:46.233Z,4.10
2023-04-23T18:26:46.509Z,4.40
2023-04-23T18:28:46.832Z,4.60
2023-04-23T18:30:47.165Z,4.60
2023-04-23T18:32:52.351Z,4.90
2023-04-23T18:34:52.679Z,4.90
2023-04-23T18:36:52.967Z,4.80
2023-04-23T18:38:53.328Z,4.70
2023-04-23T18:40:53.733Z,5.00
2023-04-23T18:42:54.113Z,5.50
2023-04-23T18:44:55.704Z,6.00
2023-04-23T18:46:56.026Z,6.20
2023-04-23T18:48:56.325Z,5.90
2023-04-23T18:50:56.682Z,5.80
2023-04-23T18:53:05.370Z,6.50
2023-04-23T18:55:05.794Z,6.50
2023-04-23T18:57:06.263Z,6.30
2023-04-23T18:59:06.551Z,6.40
2023-04-23T19:01:06.997Z,6.50
2023-04-23T19:03:19.462Z,6.50
2023-04-23T19:05:12.597Z,6.40
2023-04-23T19:07:12.930Z,6.30
2023-04-23T19:09:13.307Z,5.90
2023-04-23T19:11:13.616Z,7.10
2023-04-23T19:13:13.947Z,6.90
2023-04-23T19:15:14.201Z,6.90
2023-04-23T19:17:15.402Z,6.60
2023-04-23T19:19:16.507Z,7.40
2023-04-23T19:21:16.852Z,6.90
2023-04-23T19:23:17.101Z,6.40
2023-04-23T19:25:17.406Z,6.00
2023-04-23T19:27:17.741Z,5.00
2023-04-23T19:29:18.277Z,5.40
2023-04-23T19:31:18.644Z,4.70
2023-04-23T19:33:18.928Z,4.60
2023-04-23T19:35:19.277Z,4.80
2023-04-23T19:37:19.566Z,4.40
2023-04-23T19:39:20.114Z,4.80
2023-04-23T19:41:20.433Z,4.40
2023-04-23T19:43:21.005Z,4.80
2023-04-23T19:45:21.278Z,4.30
2023-04-23T19:47:21.679Z,4.90
2023-04-23T19:49:21.976Z,4.50
2023-04-23T19:51:22.284Z,4.30
2023-04-23T19:53:22.845Z,4.40
2023-04-23T19:55:23.127Z,4.30
2023-04-23T19:57:23.409Z,4.30
2023-04-23T19:59:23.753Z,4.50
2023-04-23T20:01:24.145Z,3.80
2023-04-23T20:03:24.774Z,3.90
2023-04-23T20:05:25.233Z,3.90
2023-04-23T20:07:25.585Z,4.30
2023-04-23T20:09:25.906Z,4.60
2023-04-23T20:11:26.533Z,4.60
2023-04-23T20:13:26.858Z,5.60
2023-04-23T20:15:27.149Z,4.60
2023-04-23T20:17:27.607Z,5.00
2023-04-23T20:19:32.621Z,4.20
2023-04-23T20:21:32.923Z,3.70
2023-04-23T20:23:37.658Z,3.90
2023-04-23T20:25:38.094Z,3.80
2023-04-23T20:27:38.501Z,3.80
2023-04-23T20:29:38.770Z,3.60
2023-04-23T20:31:39.167Z,3.60
2023-04-23T20:33:39.463Z,3.40
2023-04-23T20:35:39.772Z,3.40
2023-04-23T20:37:40.079Z,3.10
2023-04-23T20:39:40.673Z,3.50
2023-04-23T20:41:41.072Z,3.00
2023-04-23T20:43:41.681Z,2.70
2023-04-23T20:45:42.018Z,2.30
2023-04-23T20:47:42.775Z,2.50
2023-04-23T20:49:43.468Z,2.30
2023-04-23T20:51:44.060Z,2.30
2023-04-23T20:53:44.846Z,2.00
2023-04-23T20:55:45.261Z,2.10
2023-04-23T20:57:45.680Z,2.20
2023-04-23T20:59:45.916Z,2.00
2023-04-23T21:01:46.375Z,2.10
2023-04-23T21:03:46.892Z,1.80
2023-04-23T21:05:47.230Z,1.70
2023-04-23T21:07:47.679Z,1.60
2023-04-23T21:09:47.976Z,1.80
2023-04-23T21:11:48.254Z,1.80
2023-04-23T21:13:48.565Z,1.80
2023-04-23T21:15:48.886Z,1.80
2023-04-23T21:17:49.381Z,2.00
2023-04-23T21:19:49.665Z,1.90
2023-04-23T21:21:50.031Z,2.20
2023-04-23T21:23:50.292Z,2.30
2023-04-23T21:25:50.682Z,2.50
2023-04-23T21:27:51.021Z,2.70
2023-04-23T21:29:51.358Z,3.00
2023-04-23T21:31:51.953Z,2.50
2023-04-23T21:33:52.540Z,2.80
2023-04-23T21:35:53.417Z,2.30
2023-04-23T21:37:53.766Z,2.50
2023-04-23T21:39:54.177Z,2.10
2023-04-23T21:41:54.541Z,2.00
2023-04-23T21:43:54.876Z,2.10
2023-04-23T21:45:55.192Z,2.10
2023-04-23T21:47:55.657Z,2.10
2023-04-23T21:49:55.988Z,2.20
2023-04-23T21:51:56.382Z,2.00
2023-04-23T21:53:56.782Z,2.10
2023-04-23T21:55:57.054Z,2.10
2023-04-23T21:58:06.278Z,1.90
2023-04-23T22:00:02.580Z,2.00
2023-04-23T22:02:04.736Z,1.90
2023-04-23T22:04:05.147Z,1.80
2023-04-23T22:06:05.589Z,1.70
2023-04-23T22:08:05.915Z,1.90
2023-04-23T22:10:06.254Z,1.70
2023-04-23T22:12:06.887Z,1.90
2023-04-23T22:14:07.394Z,1.80
2023-04-23T22:16:20.299Z,1.70
2023-04-23T22:18:13.014Z,1.70
2023-04-23T22:20:13.526Z,1.80
2023-04-23T22:22:14.096Z,1.80
2023-04-23T22:24:14.457Z,1.80
2023-04-23T22:26:14.726Z,1.60
2023-04-23T22:28:15.102Z,1.80
2023-04-23T22:30:15.417Z,1.60
2023-04-23T22:32:15.843Z,2.00
2023-04-23T22:34:16.201Z,2.30
2023-04-23T22:36:16.543Z,1.90
2023-04-23T22:38:16.876Z,1.90
2023-04-23T22:40:17.191Z,1.80
2023-04-23T22:42:17.488Z,1.60
2023-04-23T22:44:17.902Z,1.40
2023-04-23T22:46:18.374Z,1.40
2023-04-23T22:48:18.761Z,1.40
2023-04-23T22:50:19.189Z,1.40
2023-04-23T22:52:19.463Z,1.40
2023-04-23T22:54:19.728Z,1.30
2023-04-23T22:56:20.076Z,1.30
2023-04-23T22:58:20.390Z,1.30
2023-04-23T23:00:20.686Z,1.40
2023-04-23T23:02:21.099Z,1.40
2023-04-23T23:04:21.530Z,1.30
2023-04-23T23:06:22.018Z,1.50
2023-04-23T23:08:22.448Z,1.70
2023-04-23T23:10:23.185Z,1.50
2023-04-23T23:12:23.469Z,1.60
2023-04-23T23:14:23.772Z,1.70
2023-04-23T23:16:24.148Z,1.50
2023-04-23T23:18:24.506Z,1.70
2023-04-23T23:20:24.872Z,1.60
2023-04-23T23:22:25.343Z,1.70
2023-04-23T23:24:25.655Z,1.80
2023-04-23T23:26:25.988Z,1.80
2023-04-23T23:28:26.297Z,1.70
2023-04-23T23:30:26.578Z,1.70
2023-04-23T23:32:26.995Z,1.80
2023-04-23T23:34:27.280Z,1.80
2023-04-23T23:36:27.629Z,1.70
2023-04-23T23:38:27.981Z,2.20
2023-04-23T23:40:28.535Z,2.20
2023-04-23T23:42:28.877Z,2.10
2023-04-23T23:44:29.212Z,2.30
2023-04-23T23:46:29.622Z,2.30
2023-04-23T23:48:29.904Z,2.20
2023-04-23T23:50:30.209Z,2.10
2023-04-23T23:52:30.574Z,2.00
2023-04-23T23:54:30.855Z,1.80
2023-04-23T23:56:31.271Z,1.70
2023-04-23T23:58:31.828Z,1.90
